createdAt,value
2018-08-03T00:00:46.026Z,1.40
2018-08-03T00:03:41.936Z,1.47
2018-08-03T00:06:34.521Z,1.50
2018-08-03T00:09:29.568Z,1.47
2018-08-03T00:12:21.226Z,1.50
2018-08-03T00:15:17.744Z,1.30
2018-08-03T00:18:09.485Z,1.40
2018-08-03T00:21:05.584Z,1.52
2018-08-03T00:23:58.121Z,1.13
2018-08-03T00:26:53.526Z,1.10
2018-08-03T00:29:45.400Z,1.65
2018-08-03T00:32:40.693Z,1.60
2018-08-03T00:35:32.816Z,1.30
2018-08-03T00:38:27.811Z,1.22
2018-08-03T00:41:18.974Z,1.20
2018-08-03T00:44:15.284Z,1.20
2018-08-03T00:47:06.779Z,1.47
2018-08-03T00:50:01.082Z,1.40
2018-08-03T00:52:53.619Z,1.37
2018-08-03T00:55:50.864Z,1.35
2018-08-03T00:58:43.003Z,1.50
2018-08-03T01:01:38.946Z,1.30
2018-08-03T01:04:29.739Z,1.50
2018-08-03T01:07:25.020Z,1.20
2018-08-03T01:10:17.454Z,1.40
2018-08-03T01:13:13.127Z,1.47
2018-08-03T01:16:05.663Z,1.30
2018-08-03T01:19:00.064Z,1.40
2018-08-03T01:21:52.698Z,1.40
2018-08-03T01:24:47.298Z,1.57
2018-08-03T01:27:39.710Z,1.37
2018-08-03T01:30:34.759Z,1.77
2018-08-03T01:33:26.271Z,1.47
2018-08-03T01:36:21.532Z,1.60
2018-08-03T01:39:14.535Z,1.53
2018-08-03T01:42:08.549Z,1.60
2018-08-03T01:44:59.811Z,1.75
2018-08-03T01:47:55.734Z,1.60
2018-08-03T01:50:48.081Z,1.65
2018-08-03T01:53:43.703Z,1.40
2018-08-03T01:56:37.578Z,1.40
2018-08-03T01:59:33.604Z,1.65
2018-08-03T02:02:24.950Z,1.63
2018-08-03T02:05:19.762Z,1.77
2018-08-03T02:08:13.563Z,2.20
2018-08-03T02:11:09.738Z,1.60
2018-08-03T02:14:01.257Z,1.70
2018-08-03T02:16:59.291Z,1.60
2018-08-03T02:19:50.882Z,1.63
2018-08-03T02:22:47.281Z,1.40
2018-08-03T02:25:38.683Z,1.42
2018-08-03T02:28:34.468Z,1.50
2018-08-03T02:31:27.345Z,1.60
2018-08-03T02:34:22.473Z,1.70
2018-08-03T02:37:13.978Z,1.50
2018-08-03T02:40:10.481Z,1.70
2018-08-03T02:43:01.963Z,1.65
2018-08-03T02:45:56.514Z,1.40
2018-08-03T02:48:47.394Z,1.70
2018-08-03T02:51:42.776Z,1.50
2018-08-03T02:54:36.415Z,1.80
2018-08-03T02:57:31.728Z,1.60
2018-08-03T03:00:23.337Z,1.32
2018-08-03T03:03:19.350Z,1.50
2018-08-03T03:06:12.302Z,1.47
2018-08-03T03:09:08.075Z,1.50
2018-08-03T03:11:58.863Z,1.30
2018-08-03T03:14:54.727Z,1.47
2018-08-03T03:17:46.287Z,1.60
2018-08-03T03:20:41.845Z,1.57
2018-08-03T03:23:32.677Z,1.53
2018-08-03T03:26:28.970Z,1.70
2018-08-03T03:29:20.211Z,1.70
2018-08-03T03:32:14.196Z,1.60
2018-08-03T03:35:05.613Z,1.52
2018-08-03T03:37:59.496Z,1.32
2018-08-03T03:40:50.970Z,1.43
2018-08-03T03:43:46.597Z,1.70
2018-08-03T03:46:38.119Z,1.50
2018-08-03T03:49:33.723Z,1.55
2018-08-03T03:52:25.147Z,1.60
2018-08-03T03:55:20.804Z,1.30
2018-08-03T03:58:12.197Z,1.50
2018-08-03T04:01:07.901Z,1.37
2018-08-03T04:04:00.497Z,1.40
2018-08-03T04:06:54.085Z,1.60
2018-08-03T04:09:45.810Z,1.50
2018-08-03T04:12:40.344Z,1.52
2018-08-03T04:15:31.131Z,1.40
2018-08-03T04:18:26.520Z,1.40
2018-08-03T04:21:18.789Z,1.65
2018-08-03T04:24:13.528Z,1.65
2018-08-03T04:27:04.944Z,1.35
2018-08-03T04:30:00.719Z,1.40
2018-08-03T04:32:51.315Z,1.55
2018-08-03T04:35:46.906Z,1.47
2018-08-03T04:38:37.613Z,1.25
2018-08-03T04:41:33.968Z,1.20
2018-08-03T04:44:25.524Z,1.30
2018-08-03T04:47:22.087Z,1.50
2018-08-03T04:50:13.139Z,1.60
2018-08-03T04:53:07.282Z,1.45
2018-08-03T04:55:58.696Z,1.37
2018-08-03T04:59:02.257Z,1.50
2018-08-03T05:01:53.963Z,1.37
2018-08-03T05:04:49.783Z,1.40
2018-08-03T05:07:42.108Z,1.37
2018-08-03T05:10:37.705Z,1.47
2018-08-03T05:13:29.512Z,1.55
2018-08-03T05:16:24.816Z,1.65
2018-08-03T05:19:17.200Z,1.20
2018-08-03T05:22:12.184Z,1.37
2018-08-03T05:25:03.170Z,1.20
2018-08-03T05:27:58.401Z,1.50
2018-08-03T05:30:49.771Z,1.40
2018-08-03T05:33:43.693Z,1.30
2018-08-03T05:36:35.635Z,1.50
2018-08-03T05:39:30.963Z,1.37
2018-08-03T05:42:23.234Z,1.20
2018-08-03T05:45:19.260Z,1.25
2018-08-03T05:48:12.381Z,1.20
2018-08-03T05:51:07.699Z,1.40
2018-08-03T05:54:00.417Z,1.70
2018-08-03T05:56:55.756Z,1.12
2018-08-03T05:59:46.538Z,1.05
2018-08-03T06:02:41.967Z,1.02
2018-08-03T06:05:33.180Z,1.17
2018-08-03T06:08:29.012Z,1.27
2018-08-03T06:11:23.296Z,1.20
2018-08-03T06:14:18.903Z,1.35
2018-08-03T06:17:11.025Z,1.22
2018-08-03T06:20:07.272Z,1.30
2018-08-03T06:22:58.412Z,1.00
2018-08-03T06:25:54.899Z,1.20
2018-08-03T06:28:45.933Z,1.10
2018-08-03T06:31:41.066Z,1.00
2018-08-03T06:34:32.773Z,1.10
2018-08-03T06:37:27.153Z,1.10
2018-08-03T06:40:18.131Z,0.95
2018-08-03T06:43:04.329Z,1.07
2018-08-03T06:45:55.816Z,1.00
2018-08-03T06:48:50.548Z,1.20
2018-08-03T06:51:42.196Z,1.20
2018-08-03T06:54:38.631Z,1.05
2018-08-03T06:57:30.761Z,1.20
2018-08-03T07:00:27.103Z,0.90
2018-08-03T07:03:18.515Z,1.00
2018-08-03T07:06:22.718Z,1.20
2018-08-03T07:09:19.589Z,0.80
2018-08-03T07:12:17.525Z,1.32
2018-08-03T07:15:11.719Z,0.85
2018-08-03T07:18:06.942Z,0.72
2018-08-03T07:20:52.174Z,0.90
2018-08-03T07:23:27.549Z,0.78
2018-08-03T07:25:58.748Z,0.82
2018-08-03T07:28:31.365Z,0.90
2018-08-03T07:31:05.715Z,0.85
2018-08-03T07:33:39.847Z,0.85
2018-08-03T07:36:09.666Z,1.10
2018-08-03T07:38:43.106Z,0.82
2018-08-03T07:41:14.025Z,0.80
2018-08-03T07:43:46.683Z,0.90
2018-08-03T07:46:16.249Z,0.80
2018-08-03T07:48:49.399Z,0.70
2018-08-03T07:51:18.786Z,1.00
2018-08-03T07:53:52.488Z,0.75
2018-08-03T07:56:21.834Z,0.62
2018-08-03T07:58:55.693Z,0.80
2018-08-03T08:01:25.917Z,0.93
2018-08-03T08:03:58.424Z,0.72
2018-08-03T08:06:29.442Z,0.72
2018-08-03T08:09:02.844Z,0.73
2018-08-03T08:11:33.521Z,0.65
2018-08-03T08:14:06.431Z,0.80
2018-08-03T08:16:36.501Z,0.80
2018-08-03T08:19:11.450Z,0.53
2018-08-03T08:21:45.202Z,0.60
2018-08-03T08:24:20.054Z,0.70
2018-08-03T08:26:48.553Z,0.72
2018-08-03T08:29:20.893Z,0.72
2018-08-03T08:31:51.820Z,0.57
2018-08-03T08:34:24.887Z,0.60
2018-08-03T08:36:58.810Z,0.70
2018-08-03T08:39:35.434Z,0.62
2018-08-03T08:42:06.178Z,0.50
2018-08-03T08:44:38.961Z,0.68
2018-08-03T08:47:09.906Z,0.70
2018-08-03T08:49:42.569Z,0.70
2018-08-03T08:52:13.631Z,0.72
2018-08-03T08:54:47.895Z,0.80
2018-08-03T08:57:17.654Z,0.80
2018-08-03T08:59:50.609Z,0.80
2018-08-03T09:02:20.502Z,0.60
2018-08-03T09:04:54.477Z,0.80
2018-08-03T09:07:23.855Z,0.90
2018-08-03T09:09:57.115Z,0.75
2018-08-03T09:12:26.944Z,0.82
2018-08-03T09:14:59.549Z,0.90
2018-08-03T09:17:28.586Z,0.70
2018-08-03T09:20:00.468Z,0.88
2018-08-03T09:22:34.578Z,0.90
2018-08-03T09:25:07.882Z,0.72
2018-08-03T09:27:37.931Z,0.98
2018-08-03T09:30:14.556Z,0.80
2018-08-03T09:32:56.100Z,1.00
2018-08-03T09:35:33.937Z,0.80
2018-08-03T09:38:03.632Z,0.93
2018-08-03T09:40:35.719Z,0.82
2018-08-03T09:43:07.008Z,0.80
2018-08-03T09:45:40.553Z,0.80
2018-08-03T09:48:09.847Z,0.80
2018-08-03T09:50:43.778Z,0.80
2018-08-03T09:53:14.115Z,0.90
2018-08-03T09:55:47.358Z,0.50
2018-08-03T09:58:16.493Z,0.80
2018-08-03T10:00:56.524Z,0.78
2018-08-03T10:03:26.745Z,0.65
2018-08-03T10:06:01.504Z,0.70
2018-08-03T10:08:30.702Z,0.88
2018-08-03T10:11:03.665Z,0.75
2018-08-03T10:13:33.477Z,0.70
2018-08-03T10:16:09.018Z,0.90
2018-08-03T10:18:38.215Z,0.80
2018-08-03T10:21:15.284Z,0.88
2018-08-03T10:23:55.603Z,0.72
2018-08-03T10:26:26.095Z,0.93
2018-08-03T10:28:59.561Z,0.80
2018-08-03T10:31:29.525Z,0.72
2018-08-03T10:34:02.959Z,0.70
2018-08-03T10:36:32.218Z,0.85
2018-08-03T10:39:04.668Z,0.90
2018-08-03T10:41:34.996Z,0.73
2018-08-03T10:44:07.800Z,0.68
2018-08-03T10:46:36.898Z,0.80
2018-08-03T10:49:10.145Z,0.85
2018-08-03T10:51:39.638Z,0.95
2018-08-03T10:54:11.925Z,0.70
2018-08-03T10:56:41.189Z,0.80
2018-08-03T10:59:14.667Z,0.60
2018-08-03T11:01:44.664Z,0.90
2018-08-03T11:04:18.270Z,0.90
2018-08-03T11:06:47.511Z,0.95
2018-08-03T11:09:19.982Z,0.77
2018-08-03T11:11:49.148Z,0.70
2018-08-03T11:14:22.679Z,0.70
2018-08-03T11:16:51.784Z,0.90
2018-08-03T11:19:23.538Z,0.80
2018-08-03T11:21:52.911Z,0.73
2018-08-03T11:24:28.934Z,0.90
2018-08-03T11:26:57.851Z,0.95
2018-08-03T11:29:29.855Z,0.78
2018-08-03T11:32:00.238Z,0.75
2018-08-03T11:34:35.275Z,1.00
2018-08-03T11:37:05.263Z,0.80
2018-08-03T11:39:39.107Z,0.85
2018-08-03T11:42:09.258Z,0.90
2018-08-03T11:44:47.012Z,0.80
2018-08-03T11:47:17.730Z,0.40
2018-08-03T11:49:49.741Z,0.60
2018-08-03T11:52:18.755Z,0.70
2018-08-03T11:54:51.535Z,0.65
2018-08-03T11:57:20.639Z,0.50
2018-08-03T11:59:54.181Z,0.78
2018-08-03T12:02:23.353Z,1.07
2018-08-03T12:04:55.970Z,0.88
2018-08-03T12:07:26.118Z,0.90
2018-08-03T12:09:58.641Z,1.05
2018-08-03T12:12:28.447Z,0.80
2018-08-03T12:15:02.232Z,0.97
2018-08-03T12:17:31.546Z,0.98
2018-08-03T12:20:04.967Z,1.10
2018-08-03T12:22:34.038Z,0.90
2018-08-03T12:25:12.147Z,0.70
2018-08-03T12:27:41.231Z,0.75
2018-08-03T12:30:13.905Z,1.05
2018-08-03T12:32:44.252Z,1.13
2018-08-03T12:35:16.603Z,1.00
2018-08-03T12:37:45.901Z,1.12
2018-08-03T12:40:18.368Z,1.37
2018-08-03T12:42:47.841Z,1.00
2018-08-03T12:45:22.159Z,0.85
2018-08-03T12:47:52.363Z,0.88
2018-08-03T12:50:26.504Z,1.03
2018-08-03T12:52:55.534Z,0.90
2018-08-03T12:55:29.230Z,0.82
2018-08-03T12:57:58.731Z,0.90
2018-08-03T13:00:31.922Z,0.80
2018-08-03T13:03:01.044Z,0.87
2018-08-03T13:05:33.654Z,0.90
2018-08-03T13:08:02.968Z,0.90
2018-08-03T13:10:35.234Z,0.88
2018-08-03T13:13:05.084Z,0.80
2018-08-03T13:15:38.135Z,1.05
2018-08-03T13:18:07.036Z,1.00
2018-08-03T13:20:40.025Z,0.90
2018-08-03T13:23:09.348Z,1.12
2018-08-03T13:25:46.304Z,1.10
2018-08-03T13:28:16.830Z,0.90
2018-08-03T13:30:49.068Z,1.00
2018-08-03T13:33:18.785Z,1.12
2018-08-03T13:35:50.711Z,1.22
2018-08-03T13:38:20.071Z,1.10
2018-08-03T13:40:53.026Z,1.10
2018-08-03T13:43:22.617Z,1.03
2018-08-03T13:45:56.242Z,1.07
2018-08-03T13:48:26.104Z,1.30
2018-08-03T13:50:58.961Z,0.80
2018-08-03T13:53:28.677Z,1.27
2018-08-03T13:56:00.629Z,1.03
2018-08-03T13:58:30.775Z,1.02
2018-08-03T14:01:15.140Z,1.22
2018-08-03T14:03:45.035Z,1.00
2018-08-03T14:06:17.803Z,1.20
2018-08-03T14:08:48.640Z,1.00
2018-08-03T14:11:23.640Z,1.20
2018-08-03T14:13:52.569Z,0.88
2018-08-03T14:16:23.986Z,0.80
2018-08-03T14:18:53.265Z,0.90
2018-08-03T14:21:25.899Z,0.80
2018-08-03T14:23:54.899Z,1.05
2018-08-03T14:26:33.015Z,1.50
2018-08-03T14:29:02.119Z,0.93
2018-08-03T14:31:34.919Z,1.10
2018-08-03T14:34:04.012Z,0.90
2018-08-03T14:36:36.677Z,1.00
2018-08-03T14:39:09.336Z,1.00
2018-08-03T14:41:43.052Z,0.90
2018-08-03T14:44:12.028Z,1.43
2018-08-03T14:46:44.802Z,1.10
2018-08-03T14:49:14.647Z,1.00
2018-08-03T14:51:46.591Z,0.73
2018-08-03T14:54:16.522Z,0.90
2018-08-03T14:56:50.198Z,0.88
2018-08-03T14:59:19.215Z,0.90
2018-08-03T15:01:51.989Z,0.77
2018-08-03T15:04:20.921Z,1.00
2018-08-03T15:06:54.678Z,1.12
2018-08-03T15:09:23.688Z,1.23
2018-08-03T15:11:57.267Z,1.10
2018-08-03T15:14:26.266Z,1.02
2018-08-03T15:16:59.128Z,0.80
2018-08-03T15:19:28.674Z,1.35
2018-08-03T15:22:01.797Z,1.00
2018-08-03T15:24:31.977Z,1.17
2018-08-03T15:27:08.228Z,1.00
2018-08-03T15:29:37.335Z,0.90
2018-08-03T15:32:09.905Z,1.00
2018-08-03T15:34:40.057Z,0.98
2018-08-03T15:37:12.683Z,0.90
2018-08-03T15:39:43.757Z,1.40
2018-08-03T15:42:29.757Z,1.10
2018-08-03T15:45:00.044Z,1.20
2018-08-03T15:47:34.497Z,1.27
2018-08-03T15:50:04.486Z,1.30
2018-08-03T15:52:37.140Z,1.77
2018-08-03T15:55:08.498Z,1.75
2018-08-03T15:57:43.329Z,2.00
2018-08-03T16:00:12.563Z,1.90
2018-08-03T16:02:45.413Z,1.27
2018-08-03T16:05:15.239Z,1.17
2018-08-03T16:07:47.910Z,1.35
2018-08-03T16:10:19.764Z,1.30
2018-08-03T16:12:53.243Z,1.12
2018-08-03T16:15:22.455Z,1.10
2018-08-03T16:17:54.890Z,1.25
2018-08-03T16:20:23.930Z,1.50
2018-08-03T16:23:01.541Z,1.07
2018-08-03T16:25:30.590Z,1.30
2018-08-03T16:28:06.582Z,1.00
2018-08-03T16:30:35.566Z,1.22
2018-08-03T16:33:08.464Z,1.10
2018-08-03T16:35:38.066Z,1.30
2018-08-03T16:38:24.682Z,2.60
2018-08-03T16:40:54.593Z,2.80
2018-08-03T16:43:38.508Z,1.40
2018-08-03T16:46:09.979Z,1.80
2018-08-03T16:48:43.065Z,1.47
2018-08-03T16:51:12.686Z,1.50
2018-08-03T16:53:47.158Z,1.70
2018-08-03T16:56:17.386Z,1.77
2018-08-03T16:58:51.282Z,2.13
2018-08-03T17:01:24.070Z,1.70
2018-08-03T17:04:18.304Z,2.33
2018-08-03T17:10:00.913Z,2.97
2018-08-03T17:15:42.809Z,2.45
2018-08-03T17:21:33.913Z,2.37
2018-08-03T17:24:36.469Z,3.87
2018-08-03T17:48:59.166Z,0.90
2018-08-03T17:51:33.280Z,1.60
2018-08-03T17:54:06.069Z,1.30
2018-08-03T17:56:36.540Z,1.05
2018-08-03T17:59:09.707Z,1.02
2018-08-03T18:01:48.201Z,0.85
2018-08-03T18:04:21.440Z,0.80
2018-08-03T18:07:10.242Z,1.35
2018-08-03T18:09:44.005Z,0.95
2018-08-03T18:12:13.830Z,1.07
2018-08-03T18:14:46.703Z,1.07
2018-08-03T18:17:16.108Z,1.10
2018-08-03T18:19:49.357Z,1.23
2018-08-03T18:22:19.270Z,1.02
2018-08-03T18:24:52.172Z,1.40
2018-08-03T18:27:22.425Z,1.37
2018-08-03T18:29:55.748Z,1.60
2018-08-03T18:32:27.621Z,1.60
2018-08-03T18:35:00.181Z,0.80
2018-08-03T18:37:29.730Z,1.20
2018-08-03T18:40:05.934Z,1.05
2018-08-03T18:42:34.595Z,1.00
2018-08-03T18:45:07.338Z,1.10
2018-08-03T18:47:35.994Z,1.02
2018-08-03T18:50:08.247Z,1.25
2018-08-03T18:52:40.515Z,1.12
2018-08-03T18:55:12.695Z,1.03
2018-08-03T18:57:41.500Z,1.47
2018-08-03T19:00:14.485Z,1.30
2018-08-03T19:02:43.156Z,1.40
2018-08-03T19:05:16.456Z,1.05
2018-08-03T19:07:46.034Z,1.30
2018-08-03T19:10:20.999Z,1.37
2018-08-03T19:12:49.961Z,1.50
2018-08-03T19:15:21.699Z,1.17
2018-08-03T19:17:50.551Z,1.52
2018-08-03T19:20:27.155Z,1.20
2018-08-03T19:22:56.913Z,2.10
2018-08-03T19:25:29.724Z,1.40
2018-08-03T19:27:58.644Z,1.20
2018-08-03T19:30:30.746Z,1.42
2018-08-03T19:32:59.748Z,1.50
2018-08-03T19:35:37.338Z,1.80
2018-08-03T19:38:11.207Z,1.65
2018-08-03T19:40:45.204Z,1.47
2018-08-03T19:43:14.356Z,1.30
2018-08-03T19:48:22.026Z,1.70
2018-08-03T19:50:54.223Z,1.40
2018-08-03T19:53:26.098Z,1.47
2018-08-03T19:56:00.511Z,1.45
2018-08-03T19:58:30.383Z,1.20
2018-08-03T20:01:03.220Z,1.50
2018-08-03T20:03:32.573Z,1.40
2018-08-03T20:06:05.005Z,1.40
2018-08-03T20:08:33.920Z,1.30
2018-08-03T20:11:05.936Z,1.35
2018-08-03T20:13:35.235Z,1.85
2018-08-03T20:19:14.198Z,1.87
2018-08-03T20:21:54.052Z,2.15
2018-08-03T20:24:30.594Z,1.72
2018-08-03T20:27:51.775Z,2.58
2018-08-03T20:33:17.465Z,1.77
2018-08-03T20:35:48.139Z,2.00
2018-08-03T20:38:20.859Z,1.22
2018-08-03T20:40:52.567Z,1.57
2018-08-03T20:43:26.309Z,1.60
2018-08-03T20:45:56.290Z,1.67
2018-08-03T20:48:30.106Z,1.82
2018-08-03T20:51:01.444Z,2.10
2018-08-03T20:53:38.103Z,1.20
2018-08-03T20:56:07.526Z,1.77
2018-08-03T20:58:41.835Z,2.27
2018-08-03T21:01:12.708Z,2.10
2018-08-03T21:03:52.529Z,2.10
2018-08-03T21:06:22.346Z,2.40
2018-08-03T21:08:56.167Z,2.20
2018-08-03T21:11:27.361Z,1.92
2018-08-03T21:14:01.362Z,2.10
2018-08-03T21:16:31.814Z,1.80
2018-08-03T21:19:04.012Z,1.40
2018-08-03T21:21:33.522Z,1.50
2018-08-03T21:24:09.719Z,1.40
2018-08-03T21:26:38.801Z,1.93
2018-08-03T21:29:11.181Z,1.42
2018-08-03T21:31:41.169Z,1.50
2018-08-03T21:34:13.952Z,1.70
2018-08-03T21:36:43.682Z,1.72
2018-08-03T21:39:17.746Z,1.35
2018-08-03T21:41:47.012Z,1.32
2018-08-03T21:44:21.253Z,1.77
2018-08-03T21:46:51.223Z,1.77
2018-08-03T21:49:22.907Z,1.60
2018-08-03T21:51:52.571Z,1.40
2018-08-03T21:54:28.524Z,1.43
2018-08-03T21:56:58.576Z,1.40
2018-08-03T21:59:31.991Z,1.42
2018-08-03T22:02:01.128Z,1.55
2018-08-03T22:04:33.935Z,1.30
2018-08-03T22:07:03.362Z,2.00
2018-08-03T22:09:37.367Z,1.47
2018-08-03T22:12:08.714Z,1.67
2018-08-03T22:14:41.261Z,1.70
2018-08-03T22:17:10.898Z,1.72
2018-08-03T22:19:42.794Z,1.98
2018-08-03T22:22:12.333Z,1.65
2018-08-03T22:24:46.516Z,1.60
2018-08-03T22:27:15.505Z,1.70
2018-08-03T22:29:49.090Z,1.40
2018-08-03T22:32:19.035Z,1.40
2018-08-03T22:34:52.658Z,1.70
2018-08-03T22:37:22.398Z,1.77
2018-08-03T22:39:55.434Z,1.57
2018-08-03T22:42:24.888Z,1.65
2018-08-03T22:44:58.080Z,1.90
2018-08-03T22:47:27.275Z,1.87
2018-08-03T22:50:01.764Z,1.90
2018-08-03T22:52:31.825Z,1.80
2018-08-03T22:55:08.794Z,1.92
2018-08-03T22:57:38.014Z,1.80
2018-08-03T23:00:13.433Z,2.10
2018-08-03T23:02:42.334Z,1.53
2018-08-03T23:05:15.157Z,1.45
2018-08-03T23:07:44.278Z,1.57
2018-08-03T23:10:20.875Z,1.75
2018-08-03T23:12:50.005Z,1.63
2018-08-03T23:15:22.322Z,1.65
2018-08-03T23:17:51.752Z,1.60
2018-08-03T23:20:24.130Z,1.50
2018-08-03T23:22:54.795Z,1.63
2018-08-03T23:25:26.892Z,1.67
2018-08-03T23:27:57.345Z,1.73
2018-08-03T23:30:30.383Z,1.45
2018-08-03T23:32:59.645Z,1.67
2018-08-03T23:35:32.251Z,1.73
2018-08-03T23:38:02.095Z,1.90
2018-08-03T23:40:34.020Z,1.80
2018-08-03T23:43:03.098Z,1.62
2018-08-03T23:45:36.771Z,1.75
2018-08-03T23:48:06.107Z,1.50
2018-08-03T23:50:39.833Z,2.10
2018-08-03T23:53:09.689Z,1.90
2018-08-03T23:55:46.660Z,1.70
2018-08-03T23:58:16.644Z,1.87
